sensor_id;sensor_type;location;lat;lon;timestamp;temperature;humidity
51825;DHT22;37879;52.986;6.282;2023-02-04T00:01:40;6.60;99.90
51825;DHT22;37879;52.986;6.282;2023-02-04T00:04:05;6.60;99.90
51825;DHT22;37879;52.986;6.282;2023-02-04T00:06:31;7.00;99.90
51825;DHT22;37879;52.986;6.282;2023-02-04T00:08:57;6.60;99.90
51825;DHT22;37879;52.986;6.282;2023-02-04T00:11:22;6.60;99.90
51825;DHT22;37879;52.986;6.282;2023-02-04T00:13:48;6.80;99.90
51825;DHT22;37879;52.986;6.282;2023-02-04T00:16:13;6.60;99.90
51825;DHT22;37879;52.986;6.282;2023-02-04T00:18:39;6.90;99.90
51825;DHT22;37879;52.986;6.282;2023-02-04T00:21:05;6.60;99.90
51825;DHT22;37879;52.986;6.282;2023-02-04T00:23:30;6.60;99.90
51825;DHT22;37879;52.986;6.282;2023-02-04T00:25:56;6.60;99.90
51825;DHT22;37879;52.986;6.282;2023-02-04T00:28:21;6.60;99.90
51825;DHT22;37879;52.986;6.282;2023-02-04T00:30:47;6.50;99.90
51825;DHT22;37879;52.986;6.282;2023-02-04T00:33:13;6.50;99.90
51825;DHT22;37879;52.986;6.282;2023-02-04T00:35:38;6.60;99.90
51825;DHT22;37879;52.986;6.282;2023-02-04T00:38:05;6.60;99.90
51825;DHT22;37879;52.986;6.282;2023-02-04T00:40:31;6.60;99.90
51825;DHT22;37879;52.986;6.282;2023-02-04T00:42:57;6.60;99.90
51825;DHT22;37879;52.986;6.282;2023-02-04T00:45:23;6.60;99.90
51825;DHT22;37879;52.986;6.282;2023-02-04T00:47:49;6.50;99.90
51825;DHT22;37879;52.986;6.282;2023-02-04T00:50:15;6.60;99.90
51825;DHT22;37879;52.986;6.282;2023-02-04T00:52:40;6.60;99.90
51825;DHT22;37879;52.986;6.282;2023-02-04T00:55:06;6.60;99.90
51825;DHT22;37879;52.986;6.282;2023-02-04T00:57:32;6.60;99.90
51825;DHT22;37879;52.986;6.282;2023-02-04T00:59:58;6.60;99.90
51825;DHT22;37879;52.986;6.282;2023-02-04T01:02:24;6.60;99.90
51825;DHT22;37879;52.986;6.282;2023-02-04T01:04:50;6.60;99.90
51825;DHT22;37879;52.986;6.282;2023-02-04T01:07:15;6.60;99.90
51825;DHT22;37879;52.986;6.282;2023-02-04T01:09:41;6.60;99.90
51825;DHT22;37879;52.986;6.282;2023-02-04T01:12:07;6.60;99.90
51825;DHT22;37879;52.986;6.282;2023-02-04T01:14:32;7.00;99.90
51825;DHT22;37879;52.986;6.282;2023-02-04T01:16:58;6.60;99.90
51825;DHT22;37879;52.986;6.282;2023-02-04T01:19:24;6.60;99.90
51825;DHT22;37879;52.986;6.282;2023-02-04T01:21:49;6.60;99.90
51825;DHT22;37879;52.986;6.282;2023-02-04T01:26:41;6.60;99.90
51825;DHT22;37879;52.986;6.282;2023-02-04T01:29:07;6.60;99.90
51825;DHT22;37879;52.986;6.282;2023-02-04T01:31:32;6.50;99.90
51825;DHT22;37879;52.986;6.282;2023-02-04T01:33:59;6.60;99.90
51825;DHT22;37879;52.986;6.282;2023-02-04T01:36:25;6.60;99.90
51825;DHT22;37879;52.986;6.282;2023-02-04T01:38:51;6.60;99.90
51825;DHT22;37879;52.986;6.282;2023-02-04T01:41:18;6.60;99.90
51825;DHT22;37879;52.986;6.282;2023-02-04T01:43:45;6.50;99.90
51825;DHT22;37879;52.986;6.282;2023-02-04T01:46:11;6.60;99.90
51825;DHT22;37879;52.986;6.282;2023-02-04T01:48:36;6.60;99.90
51825;DHT22;37879;52.986;6.282;2023-02-04T01:51:05;6.50;99.90
51825;DHT22;37879;52.986;6.282;2023-02-04T01:53:32;6.60;99.90
51825;DHT22;37879;52.986;6.282;2023-02-04T01:55:58;6.60;99.90
51825;DHT22;37879;52.986;6.282;2023-02-04T01:58:24;6.60;99.90
51825;DHT22;37879;52.986;6.282;2023-02-04T02:00:50;6.60;99.90
51825;DHT22;37879;52.986;6.282;2023-02-04T02:03:16;6.60;99.90
51825;DHT22;37879;52.986;6.282;2023-02-04T02:05:51;6.60;99.90
51825;DHT22;37879;52.986;6.282;2023-02-04T02:08:17;6.60;99.90
51825;DHT22;37879;52.986;6.282;2023-02-04T02:10:45;6.60;99.90
51825;DHT22;37879;52.986;6.282;2023-02-04T02:13:17;7.00;99.90
51825;DHT22;37879;52.986;6.282;2023-02-04T02:15:43;6.60;99.90
51825;DHT22;37879;52.986;6.282;2023-02-04T02:18:09;6.60;99.90
51825;DHT22;37879;52.986;6.282;2023-02-04T02:20:35;6.60;99.90
51825;DHT22;37879;52.986;6.282;2023-02-04T02:25:46;6.60;99.90
51825;DHT22;37879;52.986;6.282;2023-02-04T02:28:14;6.60;99.90
51825;DHT22;37879;52.986;6.282;2023-02-04T02:30:42;6.60;99.90
51825;DHT22;37879;52.986;6.282;2023-02-04T02:33:13;6.60;99.90
51825;DHT22;37879;52.986;6.282;2023-02-04T02:35:40;6.10;99.90
51825;DHT22;37879;52.986;6.282;2023-02-04T02:38:09;6.40;99.90
51825;DHT22;37879;52.986;6.282;2023-02-04T02:40:35;6.50;99.90
51825;DHT22;37879;52.986;6.282;2023-02-04T02:43:01;7.70;99.90
51825;DHT22;37879;52.986;6.282;2023-02-04T02:45:29;6.40;99.90
51825;DHT22;37879;52.986;6.282;2023-02-04T02:47:58;6.50;99.90
51825;DHT22;37879;52.986;6.282;2023-02-04T02:50:27;6.40;99.90
51825;DHT22;37879;52.986;6.282;2023-02-04T02:52:53;6.90;99.90
51825;DHT22;37879;52.986;6.282;2023-02-04T02:55:21;6.70;99.90
51825;DHT22;37879;52.986;6.282;2023-02-04T02:57:48;7.20;99.90
51825;DHT22;37879;52.986;6.282;2023-02-04T03:00:26;6.40;99.90
51825;DHT22;37879;52.986;6.282;2023-02-04T03:02:59;6.40;99.90
51825;DHT22;37879;52.986;6.282;2023-02-04T03:05:29;6.40;99.90
51825;DHT22;37879;52.986;6.282;2023-02-04T03:07:56;6.40;99.90
51825;DHT22;37879;52.986;6.282;2023-02-04T03:10:21;6.30;99.90
51825;DHT22;37879;52.986;6.282;2023-02-04T03:12:47;6.30;99.90
51825;DHT22;37879;52.986;6.282;2023-02-04T03:15:13;6.30;99.90
51825;DHT22;37879;52.986;6.282;2023-02-04T03:17:39;6.60;99.90
51825;DHT22;37879;52.986;6.282;2023-02-04T03:20:05;6.20;99.90
51825;DHT22;37879;52.986;6.282;2023-02-04T03:22:32;6.20;99.90
51825;DHT22;37879;52.986;6.282;2023-02-04T03:24:58;6.20;99.90
51825;DHT22;37879;52.986;6.282;2023-02-04T03:27:24;6.70;99.90
51825;DHT22;37879;52.986;6.282;2023-02-04T03:29:50;6.10;99.90
51825;DHT22;37879;52.986;6.282;2023-02-04T03:32:16;6.10;99.90
51825;DHT22;37879;52.986;6.282;2023-02-04T03:34:42;6.10;99.90
51825;DHT22;37879;52.986;6.282;2023-02-04T03:37:08;6.10;99.90
51825;DHT22;37879;52.986;6.282;2023-02-04T03:39:34;6.00;99.90
51825;DHT22;37879;52.986;6.282;2023-02-04T03:41:59;5.90;99.90
51825;DHT22;37879;52.986;6.282;2023-02-04T03:44:25;5.80;99.90
51825;DHT22;37879;52.986;6.282;2023-02-04T03:46:52;5.70;99.90
51825;DHT22;37879;52.986;6.282;2023-02-04T03:49:20;5.70;99.90
51825;DHT22;37879;52.986;6.282;2023-02-04T03:51:46;5.70;99.90
51825;DHT22;37879;52.986;6.282;2023-02-04T03:54:12;6.30;99.90
51825;DHT22;37879;52.986;6.282;2023-02-04T03:56:38;5.60;99.90
51825;DHT22;37879;52.986;6.282;2023-02-04T03:59:03;5.60;99.90
51825;DHT22;37879;52.986;6.282;2023-02-04T04:01:29;5.50;99.90
51825;DHT22;37879;52.986;6.282;2023-02-04T04:03:54;5.60;99.90
51825;DHT22;37879;52.986;6.282;2023-02-04T04:06:20;5.50;99.90
51825;DHT22;37879;52.986;6.282;2023-02-04T04:08:46;5.50;99.90
51825;DHT22;37879;52.986;6.282;2023-02-04T04:11:11;5.50;99.90
51825;DHT22;37879;52.986;6.282;2023-02-04T04:13:37;5.50;99.90
51825;DHT22;37879;52.986;6.282;2023-02-04T04:16:03;5.50;99.90
51825;DHT22;37879;52.986;6.282;2023-02-04T04:18:30;5.50;99.90
51825;DHT22;37879;52.986;6.282;2023-02-04T04:20:57;5.60;99.90
51825;DHT22;37879;52.986;6.282;2023-02-04T04:23:23;5.50;99.90
51825;DHT22;37879;52.986;6.282;2023-02-04T04:25:48;5.50;99.90
51825;DHT22;37879;52.986;6.282;2023-02-04T04:28:14;5.50;99.90
51825;DHT22;37879;52.986;6.282;2023-02-04T04:30:40;5.50;99.90
51825;DHT22;37879;52.986;6.282;2023-02-04T04:33:05;5.40;99.90
51825;DHT22;37879;52.986;6.282;2023-02-04T04:35:31;5.40;99.90
51825;DHT22;37879;52.986;6.282;2023-02-04T04:37:57;5.60;99.90
51825;DHT22;37879;52.986;6.282;2023-02-04T04:40:22;5.40;99.90
51825;DHT22;37879;52.986;6.282;2023-02-04T04:42:48;5.50;99.90
51825;DHT22;37879;52.986;6.282;2023-02-04T04:45:14;5.50;99.90
51825;DHT22;37879;52.986;6.282;2023-02-04T04:47:39;5.50;99.90
51825;DHT22;37879;52.986;6.282;2023-02-04T04:50:05;5.50;99.90
51825;DHT22;37879;52.986;6.282;2023-02-04T04:52:31;5.50;99.90
51825;DHT22;37879;52.986;6.282;2023-02-04T04:54:57;6.10;99.90
51825;DHT22;37879;52.986;6.282;2023-02-04T04:57:22;5.50;99.90
51825;DHT22;37879;52.986;6.282;2023-02-04T04:59:48;5.50;99.90
51825;DHT22;37879;52.986;6.282;2023-02-04T05:02:13;5.50;99.90
51825;DHT22;37879;52.986;6.282;2023-02-04T05:04:39;5.50;99.90
51825;DHT22;37879;52.986;6.282;2023-02-04T05:07:05;5.50;99.90
51825;DHT22;37879;52.986;6.282;2023-02-04T05:09:30;5.50;99.90
51825;DHT22;37879;52.986;6.282;2023-02-04T05:11:56;5.50;99.90
51825;DHT22;37879;52.986;6.282;2023-02-04T05:14:21;5.50;99.90
51825;DHT22;37879;52.986;6.282;2023-02-04T05:16:47;5.60;99.90
51825;DHT22;37879;52.986;6.282;2023-02-04T05:19:13;5.60;99.90
51825;DHT22;37879;52.986;6.282;2023-02-04T05:21:38;5.70;99.90
51825;DHT22;37879;52.986;6.282;2023-02-04T05:24:04;5.70;99.90
51825;DHT22;37879;52.986;6.282;2023-02-04T05:26:31;5.80;99.90
51825;DHT22;37879;52.986;6.282;2023-02-04T05:28:58;5.80;99.90
51825;DHT22;37879;52.986;6.282;2023-02-04T05:31:24;5.80;99.90
51825;DHT22;37879;52.986;6.282;2023-02-04T05:33:50;5.80;99.90
51825;DHT22;37879;52.986;6.282;2023-02-04T05:36:16;5.70;99.90
51825;DHT22;37879;52.986;6.282;2023-02-04T05:38:42;5.60;99.90
51825;DHT22;37879;52.986;6.282;2023-02-04T05:41:08;5.60;99.90
51825;DHT22;37879;52.986;6.282;2023-02-04T05:43:33;5.90;99.90
51825;DHT22;37879;52.986;6.282;2023-02-04T05:46:00;5.60;99.90
51825;DHT22;37879;52.986;6.282;2023-02-04T05:48:26;5.60;99.90
51825;DHT22;37879;52.986;6.282;2023-02-04T05:50:51;5.70;99.90
51825;DHT22;37879;52.986;6.282;2023-02-04T05:53:17;5.70;99.90
51825;DHT22;37879;52.986;6.282;2023-02-04T05:55:43;5.70;99.90
51825;DHT22;37879;52.986;6.282;2023-02-04T05:58:08;5.70;99.90
51825;DHT22;37879;52.986;6.282;2023-02-04T06:00:34;5.70;99.90
51825;DHT22;37879;52.986;6.282;2023-02-04T06:02:59;5.70;99.90
51825;DHT22;37879;52.986;6.282;2023-02-04T06:05:25;5.70;99.90
51825;DHT22;37879;52.986;6.282;2023-02-04T06:07:51;5.60;99.90
51825;DHT22;37879;52.986;6.282;2023-02-04T06:10:16;5.60;99.90
51825;DHT22;37879;52.986;6.282;2023-02-04T06:12:42;5.60;99.90
51825;DHT22;37879;52.986;6.282;2023-02-04T06:15:08;5.60;99.90
51825;DHT22;37879;52.986;6.282;2023-02-04T06:17:34;5.60;99.90
51825;DHT22;37879;52.986;6.282;2023-02-04T06:20:00;5.60;99.90
51825;DHT22;37879;52.986;6.282;2023-02-04T06:22:25;5.60;99.90
51825;DHT22;37879;52.986;6.282;2023-02-04T06:24:51;5.60;99.90
51825;DHT22;37879;52.986;6.282;2023-02-04T06:27:17;5.60;99.90
51825;DHT22;37879;52.986;6.282;2023-02-04T06:29:52;5.60;99.90
51825;DHT22;37879;52.986;6.282;2023-02-04T06:32:18;5.60;99.90
51825;DHT22;37879;52.986;6.282;2023-02-04T06:34:44;5.60;99.90
51825;DHT22;37879;52.986;6.282;2023-02-04T06:37:10;5.60;99.90
51825;DHT22;37879;52.986;6.282;2023-02-04T06:39:36;5.60;99.90
51825;DHT22;37879;52.986;6.282;2023-02-04T06:42:01;5.60;99.90
51825;DHT22;37879;52.986;6.282;2023-02-04T06:44:27;5.50;99.90
51825;DHT22;37879;52.986;6.282;2023-02-04T06:46:52;5.50;99.90
51825;DHT22;37879;52.986;6.282;2023-02-04T06:49:18;5.40;99.90
51825;DHT22;37879;52.986;6.282;2023-02-04T06:51:44;5.40;99.90
51825;DHT22;37879;52.986;6.282;2023-02-04T06:54:09;5.40;99.90
51825;DHT22;37879;52.986;6.282;2023-02-04T06:56:35;5.40;99.90
51825;DHT22;37879;52.986;6.282;2023-02-04T06:59:02;5.40;99.90
51825;DHT22;37879;52.986;6.282;2023-02-04T07:01:27;5.40;99.90
51825;DHT22;37879;52.986;6.282;2023-02-04T07:03:53;5.40;99.90
51825;DHT22;37879;52.986;6.282;2023-02-04T07:06:18;5.40;99.90
51825;DHT22;37879;52.986;6.282;2023-02-04T07:08:44;5.30;99.90
51825;DHT22;37879;52.986;6.282;2023-02-04T07:11:11;5.30;99.90
51825;DHT22;37879;52.986;6.282;2023-02-04T07:13:36;5.30;99.90
51825;DHT22;37879;52.986;6.282;2023-02-04T07:16:02;5.30;99.90
51825;DHT22;37879;52.986;6.282;2023-02-04T07:18:28;5.30;99.90
51825;DHT22;37879;52.986;6.282;2023-02-04T07:20:53;5.30;99.90
51825;DHT22;37879;52.986;6.282;2023-02-04T07:23:19;5.40;99.90
51825;DHT22;37879;52.986;6.282;2023-02-04T07:25:45;5.40;99.90
51825;DHT22;37879;52.986;6.282;2023-02-04T07:28:10;5.40;99.90
51825;DHT22;37879;52.986;6.282;2023-02-04T07:30:36;5.50;99.90
51825;DHT22;37879;52.986;6.282;2023-02-04T07:33:01;5.50;99.90
51825;DHT22;37879;52.986;6.282;2023-02-04T07:35:27;6.20;99.90
51825;DHT22;37879;52.986;6.282;2023-02-04T07:37:53;5.40;99.90
51825;DHT22;37879;52.986;6.282;2023-02-04T07:40:18;5.50;99.90
51825;DHT22;37879;52.986;6.282;2023-02-04T07:42:46;5.50;99.90
51825;DHT22;37879;52.986;6.282;2023-02-04T07:45:11;5.50;99.90
51825;DHT22;37879;52.986;6.282;2023-02-04T07:47:37;5.50;99.90
51825;DHT22;37879;52.986;6.282;2023-02-04T07:50:03;5.50;99.90
51825;DHT22;37879;52.986;6.282;2023-02-04T07:52:28;5.50;99.90
51825;DHT22;37879;52.986;6.282;2023-02-04T07:54:54;5.50;99.90
51825;DHT22;37879;52.986;6.282;2023-02-04T07:57:20;5.40;99.90
51825;DHT22;37879;52.986;6.282;2023-02-04T07:59:46;5.50;99.90
51825;DHT22;37879;52.986;6.282;2023-02-04T08:02:11;5.50;99.90
51825;DHT22;37879;52.986;6.282;2023-02-04T08:04:37;5.50;99.90
51825;DHT22;37879;52.986;6.282;2023-02-04T08:07:04;5.50;99.90
51825;DHT22;37879;52.986;6.282;2023-02-04T08:09:29;5.50;99.90
51825;DHT22;37879;52.986;6.282;2023-02-04T08:11:55;5.50;99.90
51825;DHT22;37879;52.986;6.282;2023-02-04T08:14:20;5.60;99.90
51825;DHT22;37879;52.986;6.282;2023-02-04T08:16:46;5.60;99.90
51825;DHT22;37879;52.986;6.282;2023-02-04T08:19:12;5.60;99.90
51825;DHT22;37879;52.986;6.282;2023-02-04T08:21:43;5.60;99.90
51825;DHT22;37879;52.986;6.282;2023-02-04T08:24:09;5.70;99.90
51825;DHT22;37879;52.986;6.282;2023-02-04T08:26:35;5.70;99.90
51825;DHT22;37879;52.986;6.282;2023-02-04T08:29:00;5.70;99.90
51825;DHT22;37879;52.986;6.282;2023-02-04T08:31:26;5.70;99.90
51825;DHT22;37879;52.986;6.282;2023-02-04T08:33:52;5.70;99.90
51825;DHT22;37879;52.986;6.282;2023-02-04T08:36:17;5.70;99.90
51825;DHT22;37879;52.986;6.282;2023-02-04T08:38:43;5.80;99.90
51825;DHT22;37879;52.986;6.282;2023-02-04T08:41:09;5.80;99.90
51825;DHT22;37879;52.986;6.282;2023-02-04T08:43:35;5.80;99.90
51825;DHT22;37879;52.986;6.282;2023-02-04T08:46:01;5.90;99.90
51825;DHT22;37879;52.986;6.282;2023-02-04T08:48:27;5.90;99.90
51825;DHT22;37879;52.986;6.282;2023-02-04T08:50:52;5.90;99.90
51825;DHT22;37879;52.986;6.282;2023-02-04T08:53:18;5.90;99.90
51825;DHT22;37879;52.986;6.282;2023-02-04T08:55:44;6.00;99.90
51825;DHT22;37879;52.986;6.282;2023-02-04T08:58:09;6.00;99.90
51825;DHT22;37879;52.986;6.282;2023-02-04T09:00:35;6.00;99.90
51825;DHT22;37879;52.986;6.282;2023-02-04T09:03:01;6.00;99.90
51825;DHT22;37879;52.986;6.282;2023-02-04T09:05:26;6.00;99.90
51825;DHT22;37879;52.986;6.282;2023-02-04T09:07:52;6.00;99.90
51825;DHT22;37879;52.986;6.282;2023-02-04T09:10:17;6.00;99.90
51825;DHT22;37879;52.986;6.282;2023-02-04T09:12:43;6.10;99.90
51825;DHT22;37879;52.986;6.282;2023-02-04T09:15:10;6.00;99.90
51825;DHT22;37879;52.986;6.282;2023-02-04T09:17:36;6.10;99.90
51825;DHT22;37879;52.986;6.282;2023-02-04T09:20:04;6.00;99.90
51825;DHT22;37879;52.986;6.282;2023-02-04T09:22:30;6.00;99.90
51825;DHT22;37879;52.986;6.282;2023-02-04T09:24:55;6.00;99.90
51825;DHT22;37879;52.986;6.282;2023-02-04T09:27:21;5.90;99.90
51825;DHT22;37879;52.986;6.282;2023-02-04T09:29:47;5.90;99.90
51825;DHT22;37879;52.986;6.282;2023-02-04T09:32:12;6.00;99.90
51825;DHT22;37879;52.986;6.282;2023-02-04T09:34:38;6.00;99.90
51825;DHT22;37879;52.986;6.282;2023-02-04T09:37:04;6.00;99.90
51825;DHT22;37879;52.986;6.282;2023-02-04T09:39:29;6.00;99.90
51825;DHT22;37879;52.986;6.282;2023-02-04T09:41:55;6.70;99.90
51825;DHT22;37879;52.986;6.282;2023-02-04T09:44:24;6.20;99.90
51825;DHT22;37879;52.986;6.282;2023-02-04T09:46:53;6.20;99.90
51825;DHT22;37879;52.986;6.282;2023-02-04T09:49:19;6.20;99.90
51825;DHT22;37879;52.986;6.282;2023-02-04T09:51:46;6.20;99.90
51825;DHT22;37879;52.986;6.282;2023-02-04T09:54:15;6.20;99.90
51825;DHT22;37879;52.986;6.282;2023-02-04T09:56:41;6.20;99.90
51825;DHT22;37879;52.986;6.282;2023-02-04T09:59:12;6.20;99.90
51825;DHT22;37879;52.986;6.282;2023-02-04T10:01:38;6.30;99.90
51825;DHT22;37879;52.986;6.282;2023-02-04T10:04:04;6.50;99.90
51825;DHT22;37879;52.986;6.282;2023-02-04T10:06:29;6.30;99.90
51825;DHT22;37879;52.986;6.282;2023-02-04T10:08:55;6.40;99.90
51825;DHT22;37879;52.986;6.282;2023-02-04T10:11:23;6.40;99.90
51825;DHT22;37879;52.986;6.282;2023-02-04T10:13:53;6.40;99.90
51825;DHT22;37879;52.986;6.282;2023-02-04T10:16:20;6.40;99.90
51825;DHT22;37879;52.986;6.282;2023-02-04T10:18:46;6.90;99.90
51825;DHT22;37879;52.986;6.282;2023-02-04T10:21:21;6.50;99.90
51825;DHT22;37879;52.986;6.282;2023-02-04T10:23:52;6.50;99.90
51825;DHT22;37879;52.986;6.282;2023-02-04T10:26:20;6.50;99.90
51825;DHT22;37879;52.986;6.282;2023-02-04T10:28:46;6.50;99.90
51825;DHT22;37879;52.986;6.282;2023-02-04T10:34:22;6.50;99.90
51825;DHT22;37879;52.986;6.282;2023-02-04T10:36:53;6.60;99.90
51825;DHT22;37879;52.986;6.282;2023-02-04T10:39:27;6.60;99.90
51825;DHT22;37879;52.986;6.282;2023-02-04T10:41:54;6.60;99.90
51825;DHT22;37879;52.986;6.282;2023-02-04T10:44:26;6.60;99.90
51825;DHT22;37879;52.986;6.282;2023-02-04T10:47:16;6.60;99.90
51825;DHT22;37879;52.986;6.282;2023-02-04T10:50:00;6.60;99.90
51825;DHT22;37879;52.986;6.282;2023-02-04T10:52:43;6.70;99.90
51825;DHT22;37879;52.986;6.282;2023-02-04T10:55:13;6.70;99.90
51825;DHT22;37879;52.986;6.282;2023-02-04T10:57:41;6.80;99.90
51825;DHT22;37879;52.986;6.282;2023-02-04T11:00:22;6.80;99.90
51825;DHT22;37879;52.986;6.282;2023-02-04T11:05:30;7.00;99.90
51825;DHT22;37879;52.986;6.282;2023-02-04T11:07:56;7.00;99.90
51825;DHT22;37879;52.986;6.282;2023-02-04T11:10:26;7.10;99.90
51825;DHT22;37879;52.986;6.282;2023-02-04T11:20:48;7.50;99.90
51825;DHT22;37879;52.986;6.282;2023-02-04T11:23:15;7.30;99.90
51825;DHT22;37879;52.986;6.282;2023-02-04T11:25:41;8.30;99.90
51825;DHT22;37879;52.986;6.282;2023-02-04T11:28:25;7.50;99.90
51825;DHT22;37879;52.986;6.282;2023-02-04T11:31:01;7.50;99.90
51825;DHT22;37879;52.986;6.282;2023-02-04T11:33:39;7.50;99.90
51825;DHT22;37879;52.986;6.282;2023-02-04T11:36:08;7.50;99.90
51825;DHT22;37879;52.986;6.282;2023-02-04T11:38:35;7.50;99.90
51825;DHT22;37879;52.986;6.282;2023-02-04T11:41:01;7.60;99.90
51825;DHT22;37879;52.986;6.282;2023-02-04T11:43:32;7.70;99.90
51825;DHT22;37879;52.986;6.282;2023-02-04T11:46:11;7.70;99.90
51825;DHT22;37879;52.986;6.282;2023-02-04T11:48:38;7.80;99.90
51825;DHT22;37879;52.986;6.282;2023-02-04T11:51:14;7.80;99.90
51825;DHT22;37879;52.986;6.282;2023-02-04T11:53:40;7.80;99.90
51825;DHT22;37879;52.986;6.282;2023-02-04T11:56:06;7.80;99.90
51825;DHT22;37879;52.986;6.282;2023-02-04T11:58:32;7.80;99.90
51825;DHT22;37879;52.986;6.282;2023-02-04T12:00:58;7.80;99.90
51825;DHT22;37879;52.986;6.282;2023-02-04T12:03:27;7.90;99.90
51825;DHT22;37879;52.986;6.282;2023-02-04T12:05:57;7.90;99.90
51825;DHT22;37879;52.986;6.282;2023-02-04T12:11:11;8.00;99.90
51825;DHT22;37879;52.986;6.282;2023-02-04T12:13:50;8.00;99.90
51825;DHT22;37879;52.986;6.282;2023-02-04T12:16:17;7.90;99.90
51825;DHT22;37879;52.986;6.282;2023-02-04T12:18:43;7.90;99.90
51825;DHT22;37879;52.986;6.282;2023-02-04T12:21:08;7.90;99.90
51825;DHT22;37879;52.986;6.282;2023-02-04T12:23:34;7.90;99.90
51825;DHT22;37879;52.986;6.282;2023-02-04T12:26:00;7.90;99.90
51825;DHT22;37879;52.986;6.282;2023-02-04T12:28:25;7.90;99.90
51825;DHT22;37879;52.986;6.282;2023-02-04T12:30:55;7.90;99.90
51825;DHT22;37879;52.986;6.282;2023-02-04T12:33:21;7.90;99.90
51825;DHT22;37879;52.986;6.282;2023-02-04T12:35:49;8.00;99.90
51825;DHT22;37879;52.986;6.282;2023-02-04T12:38:15;7.90;99.90
51825;DHT22;37879;52.986;6.282;2023-02-04T12:40:41;8.00;99.90
51825;DHT22;37879;52.986;6.282;2023-02-04T12:43:07;8.20;99.90
51825;DHT22;37879;52.986;6.282;2023-02-04T12:45:33;7.90;99.90
51825;DHT22;37879;52.986;6.282;2023-02-04T12:47:59;8.00;99.90
51825;DHT22;37879;52.986;6.282;2023-02-04T12:50:24;7.90;99.90
51825;DHT22;37879;52.986;6.282;2023-02-04T12:52:58;8.00;99.90
51825;DHT22;37879;52.986;6.282;2023-02-04T12:55:26;8.00;99.90
51825;DHT22;37879;52.986;6.282;2023-02-04T12:57:52;8.00;99.90
51825;DHT22;37879;52.986;6.282;2023-02-04T13:00:19;8.00;99.90
51825;DHT22;37879;52.986;6.282;2023-02-04T13:02:45;8.00;99.90
51825;DHT22;37879;52.986;6.282;2023-02-04T13:05:12;7.90;99.90
51825;DHT22;37879;52.986;6.282;2023-02-04T13:07:38;7.90;99.90
51825;DHT22;37879;52.986;6.282;2023-02-04T13:10:08;7.90;99.90
51825;DHT22;37879;52.986;6.282;2023-02-04T13:12:34;7.90;99.90
51825;DHT22;37879;52.986;6.282;2023-02-04T13:15:00;7.90;99.90
51825;DHT22;37879;52.986;6.282;2023-02-04T13:17:26;7.90;99.90
51825;DHT22;37879;52.986;6.282;2023-02-04T13:19:51;7.90;99.90
51825;DHT22;37879;52.986;6.282;2023-02-04T13:22:17;7.90;99.90
51825;DHT22;37879;52.986;6.282;2023-02-04T13:24:42;8.00;99.90
51825;DHT22;37879;52.986;6.282;2023-02-04T13:27:08;8.00;99.90
51825;DHT22;37879;52.986;6.282;2023-02-04T13:29:34;8.10;99.90
51825;DHT22;37879;52.986;6.282;2023-02-04T13:31:59;8.10;99.90
51825;DHT22;37879;52.986;6.282;2023-02-04T13:34:25;8.10;99.90
51825;DHT22;37879;52.986;6.282;2023-02-04T13:36:51;8.10;99.90
51825;DHT22;37879;52.986;6.282;2023-02-04T13:39:16;8.10;99.90
51825;DHT22;37879;52.986;6.282;2023-02-04T13:41:42;8.20;99.90
51825;DHT22;37879;52.986;6.282;2023-02-04T13:44:07;8.20;99.90
51825;DHT22;37879;52.986;6.282;2023-02-04T13:46:33;8.20;99.90
51825;DHT22;37879;52.986;6.282;2023-02-04T13:48:59;8.20;99.90
51825;DHT22;37879;52.986;6.282;2023-02-04T13:51:25;8.20;99.90
51825;DHT22;37879;52.986;6.282;2023-02-04T13:53:50;8.20;99.90
51825;DHT22;37879;52.986;6.282;2023-02-04T13:56:16;8.10;99.90
51825;DHT22;37879;52.986;6.282;2023-02-04T13:58:42;8.10;99.90
51825;DHT22;37879;52.986;6.282;2023-02-04T14:01:13;8.10;99.90
51825;DHT22;37879;52.986;6.282;2023-02-04T14:03:39;8.10;99.90
51825;DHT22;37879;52.986;6.282;2023-02-04T14:06:05;8.10;99.90
51825;DHT22;37879;52.986;6.282;2023-02-04T14:08:31;8.10;99.90
51825;DHT22;37879;52.986;6.282;2023-02-04T14:10:57;8.50;99.90
51825;DHT22;37879;52.986;6.282;2023-02-04T14:13:23;8.10;99.90
51825;DHT22;37879;52.986;6.282;2023-02-04T14:15:49;8.10;99.90
51825;DHT22;37879;52.986;6.282;2023-02-04T14:18:14;8.10;99.90
51825;DHT22;37879;52.986;6.282;2023-02-04T14:20:41;8.10;99.90
51825;DHT22;37879;52.986;6.282;2023-02-04T14:23:07;8.30;99.90
51825;DHT22;37879;52.986;6.282;2023-02-04T14:25:32;8.00;99.90
51825;DHT22;37879;52.986;6.282;2023-02-04T14:27:58;8.00;99.90
51825;DHT22;37879;52.986;6.282;2023-02-04T14:30:26;8.00;99.90
51825;DHT22;37879;52.986;6.282;2023-02-04T14:32:52;8.00;99.90
51825;DHT22;37879;52.986;6.282;2023-02-04T14:35:18;8.00;99.90
51825;DHT22;37879;52.986;6.282;2023-02-04T14:37:44;8.10;99.90
51825;DHT22;37879;52.986;6.282;2023-02-04T14:40:11;8.20;99.90
51825;DHT22;37879;52.986;6.282;2023-02-04T14:42:38;8.10;99.90
51825;DHT22;37879;52.986;6.282;2023-02-04T14:45:04;8.10;99.90
51825;DHT22;37879;52.986;6.282;2023-02-04T14:47:31;8.00;99.90
51825;DHT22;37879;52.986;6.282;2023-02-04T14:49:57;8.10;99.90
51825;DHT22;37879;52.986;6.282;2023-02-04T14:52:23;8.00;99.90
51825;DHT22;37879;52.986;6.282;2023-02-04T14:54:49;8.00;99.90
51825;DHT22;37879;52.986;6.282;2023-02-04T14:57:14;7.90;99.90
51825;DHT22;37879;52.986;6.282;2023-02-04T14:59:40;7.90;99.90
51825;DHT22;37879;52.986;6.282;2023-02-04T15:02:06;7.80;99.90
51825;DHT22;37879;52.986;6.282;2023-02-04T15:04:32;7.70;99.90
51825;DHT22;37879;52.986;6.282;2023-02-04T15:06:58;7.60;99.90
51825;DHT22;37879;52.986;6.282;2023-02-04T15:09:24;7.70;99.90
51825;DHT22;37879;52.986;6.282;2023-02-04T15:11:50;7.50;99.90
51825;DHT22;37879;52.986;6.282;2023-02-04T15:14:16;7.40;99.90
51825;DHT22;37879;52.986;6.282;2023-02-04T15:16:42;7.40;99.90
51825;DHT22;37879;52.986;6.282;2023-02-04T15:19:09;7.40;99.90
51825;DHT22;37879;52.986;6.282;2023-02-04T15:21:35;7.30;99.90
51825;DHT22;37879;52.986;6.282;2023-02-04T15:24:01;7.20;99.90
51825;DHT22;37879;52.986;6.282;2023-02-04T15:26:27;7.20;99.90
51825;DHT22;37879;52.986;6.282;2023-02-04T15:28:52;7.20;99.90
51825;DHT22;37879;52.986;6.282;2023-02-04T15:31:20;7.10;99.90
51825;DHT22;37879;52.986;6.282;2023-02-04T15:33:46;7.10;99.90
51825;DHT22;37879;52.986;6.282;2023-02-04T15:36:12;7.10;99.90
51825;DHT22;37879;52.986;6.282;2023-02-04T15:38:37;7.10;99.90
51825;DHT22;37879;52.986;6.282;2023-02-04T15:41:03;7.10;99.90
51825;DHT22;37879;52.986;6.282;2023-02-04T15:43:28;7.10;99.90
51825;DHT22;37879;52.986;6.282;2023-02-04T15:45:54;7.10;99.90
51825;DHT22;37879;52.986;6.282;2023-02-04T15:48:20;7.10;99.90
51825;DHT22;37879;52.986;6.282;2023-02-04T15:50:49;7.10;99.90
51825;DHT22;37879;52.986;6.282;2023-02-04T15:53:15;7.10;99.90
51825;DHT22;37879;52.986;6.282;2023-02-04T15:55:40;7.80;99.90
51825;DHT22;37879;52.986;6.282;2023-02-04T15:58:06;7.10;99.90
51825;DHT22;37879;52.986;6.282;2023-02-04T16:00:32;7.10;99.90
51825;DHT22;37879;52.986;6.282;2023-02-04T16:02:57;7.10;99.90